createdAt,value
2022-11-16T00:00:06.105Z,12.03
2022-11-16T00:02:35.318Z,11.90
2022-11-16T00:05:03.531Z,11.83
2022-11-16T00:07:31.791Z,11.70
2022-11-16T00:09:59.946Z,11.47
2022-11-16T00:12:29.493Z,11.00
2022-11-16T00:14:57.661Z,11.60
2022-11-16T00:17:25.781Z,11.40
2022-11-16T00:19:53.894Z,11.03
2022-11-16T00:22:22.047Z,11.03
2022-11-16T00:24:50.200Z,11.43
2022-11-16T00:27:18.300Z,11.33
2022-11-16T00:29:47.852Z,11.63
2022-11-16T00:32:15.957Z,12.40
2022-11-16T00:34:44.026Z,11.97
2022-11-16T00:37:12.190Z,12.00
2022-11-16T00:39:40.232Z,12.03
2022-11-16T00:42:08.355Z,11.67
2022-11-16T00:44:36.486Z,12.00
2022-11-16T00:47:06.414Z,11.50
2022-11-16T00:49:34.618Z,11.67
2022-11-16T00:52:02.697Z,12.40
2022-11-16T00:54:30.896Z,11.63
2022-11-16T00:56:59.006Z,11.30
2022-11-16T00:59:27.080Z,12.00
2022-11-16T01:01:55.236Z,11.67
2022-11-16T01:04:24.753Z,11.30
2022-11-16T01:06:52.901Z,11.70
2022-11-16T01:09:21.002Z,11.20
2022-11-16T01:12:06.467Z,11.70
2022-11-16T01:14:34.813Z,12.10
2022-11-16T01:17:03.018Z,11.90
2022-11-16T01:19:32.728Z,11.13
2022-11-16T01:22:00.979Z,11.37
2022-11-16T01:24:29.137Z,11.07
2022-11-16T01:26:58.345Z,10.80
2022-11-16T01:29:26.591Z,10.93
2022-11-16T01:31:55.146Z,11.07
2022-11-16T01:34:24.105Z,10.87
2022-11-16T01:36:53.742Z,10.50
2022-11-16T01:39:21.858Z,11.00
2022-11-16T01:41:50.084Z,10.87
2022-11-16T01:44:59.500Z,10.50
2022-11-16T01:47:27.931Z,10.63
2022-11-16T01:50:03.437Z,10.90
2022-11-16T01:52:35.996Z,11.33
2022-11-16T01:55:04.941Z,11.67
2022-11-16T01:57:40.721Z,10.53
2022-11-16T02:00:12.008Z,10.53
2022-11-16T02:02:40.093Z,11.10
2022-11-16T02:05:09.732Z,11.37
2022-11-16T02:08:22.194Z,11.10
2022-11-16T02:11:10.701Z,11.17
2022-11-16T02:13:50.311Z,10.50
2022-11-16T02:16:30.395Z,11.00
2022-11-16T02:19:09.562Z,10.73
2022-11-16T02:21:42.495Z,10.70
2022-11-16T02:24:37.726Z,11.17
2022-11-16T02:27:44.696Z,11.67
2022-11-16T02:30:15.035Z,11.43
2022-11-16T02:32:49.295Z,11.63
2022-11-16T02:35:22.070Z,11.57
2022-11-16T02:37:53.670Z,11.43
2022-11-16T02:40:24.608Z,11.77
2022-11-16T02:42:56.229Z,12.50
2022-11-16T02:45:29.040Z,11.70
2022-11-16T02:48:02.693Z,12.43
2022-11-16T02:50:32.730Z,12.00
2022-11-16T02:53:00.799Z,12.20
2022-11-16T02:55:31.346Z,12.23
2022-11-16T02:58:01.145Z,12.20
2022-11-16T03:00:37.174Z,12.63
2022-11-16T03:03:16.546Z,12.53
2022-11-16T03:05:49.231Z,12.50
2022-11-16T03:08:23.198Z,12.20
2022-11-16T03:11:12.692Z,12.30
2022-11-16T03:13:42.553Z,12.60
2022-11-16T03:16:18.324Z,12.53
2022-11-16T03:18:49.303Z,12.30
2022-11-16T03:21:26.055Z,12.40
2022-11-16T03:23:54.262Z,12.80
2022-11-16T03:26:27.298Z,12.50
2022-11-16T03:29:02.825Z,12.80
2022-11-16T03:31:37.183Z,12.80
2022-11-16T03:34:09.533Z,13.10
2022-11-16T03:36:41.017Z,12.97
2022-11-16T03:39:14.143Z,13.10
2022-11-16T03:41:45.207Z,13.47
2022-11-16T03:44:15.508Z,13.00
2022-11-16T03:46:46.595Z,13.20
2022-11-16T03:49:14.660Z,13.13
2022-11-16T03:51:42.925Z,12.97
2022-11-16T03:54:11.005Z,12.97
2022-11-16T03:56:39.212Z,13.60
2022-11-16T03:59:07.344Z,13.37
2022-11-16T04:01:38.213Z,13.53
2022-11-16T04:04:30.743Z,13.37
2022-11-16T04:07:16.169Z,13.37
2022-11-16T04:10:01.480Z,13.33
2022-11-16T04:12:47.338Z,13.30
2022-11-16T04:15:32.804Z,13.40
2022-11-16T04:18:18.009Z,13.30
2022-11-16T04:21:05.578Z,13.50
2022-11-16T04:23:50.936Z,13.60
2022-11-16T04:26:19.050Z,13.67
2022-11-16T04:28:46.132Z,14.03
2022-11-16T04:31:31.564Z,14.30
2022-11-16T04:34:17.380Z,14.93
2022-11-16T04:37:06.338Z,15.50
2022-11-16T04:39:34.353Z,14.70
2022-11-16T04:42:19.862Z,15.40
2022-11-16T04:45:05.575Z,14.87
2022-11-16T04:47:33.759Z,14.33
2022-11-16T04:50:01.831Z,14.83
2022-11-16T04:52:31.448Z,15.83
2022-11-16T04:54:59.534Z,15.50
2022-11-16T04:57:27.593Z,16.10
2022-11-16T04:59:55.703Z,15.57
2022-11-16T05:02:23.835Z,16.10
2022-11-16T05:04:52.039Z,14.67
2022-11-16T05:07:20.078Z,15.10
2022-11-16T05:09:50.649Z,14.70
2022-11-16T05:12:21.204Z,14.70
2022-11-16T05:14:49.444Z,15.00
2022-11-16T05:17:19.089Z,14.70
2022-11-16T05:20:04.479Z,15.50
2022-11-16T05:22:32.840Z,15.00
2022-11-16T05:25:03.061Z,14.33
2022-11-16T05:27:31.767Z,15.00
2022-11-16T05:30:00.223Z,15.00
2022-11-16T05:32:29.181Z,14.77
2022-11-16T05:34:57.272Z,15.20
2022-11-16T05:37:26.702Z,15.23
2022-11-16T05:39:56.948Z,14.80
2022-11-16T05:42:26.509Z,15.10
2022-11-16T05:44:54.577Z,15.00
2022-11-16T05:47:22.608Z,15.00
2022-11-16T05:49:51.830Z,15.30
2022-11-16T05:52:19.922Z,15.30
2022-11-16T05:54:47.990Z,15.50
2022-11-16T05:57:17.483Z,15.20
2022-11-16T05:59:47.112Z,14.73
2022-11-16T06:02:15.160Z,15.40
2022-11-16T06:04:43.241Z,15.57
2022-11-16T06:07:11.380Z,15.77
2022-11-16T06:09:39.565Z,15.30
2022-11-16T06:12:09.249Z,15.47
2022-11-16T06:14:37.340Z,15.27
2022-11-16T06:17:06.926Z,15.20
2022-11-16T06:19:36.214Z,15.40
2022-11-16T06:22:04.293Z,15.80
2022-11-16T06:24:32.316Z,16.07
2022-11-16T06:27:00.489Z,17.00
2022-11-16T06:29:28.568Z,17.10
2022-11-16T06:31:56.686Z,16.70
2022-11-16T06:34:26.160Z,16.07
2022-11-16T06:36:54.254Z,15.80
2022-11-16T06:39:22.453Z,17.00
2022-11-16T06:41:50.561Z,16.60
2022-11-16T06:44:18.641Z,15.93
2022-11-16T06:46:46.686Z,16.30
2022-11-16T06:49:14.991Z,16.50
2022-11-16T06:51:44.402Z,16.33
2022-11-16T06:54:12.521Z,15.47
2022-11-16T06:56:40.626Z,15.83
2022-11-16T06:59:08.704Z,15.23
2022-11-16T07:01:37.036Z,15.53
2022-11-16T07:04:05.150Z,15.70
2022-11-16T07:06:33.435Z,15.63
2022-11-16T07:09:03.296Z,16.37
2022-11-16T07:11:31.451Z,16.70
2022-11-16T07:13:59.767Z,16.70
2022-11-16T07:16:27.838Z,16.47
2022-11-16T07:18:57.850Z,15.77
2022-11-16T07:21:26.512Z,15.80
2022-11-16T07:23:54.740Z,16.60
2022-11-16T07:26:24.255Z,15.70
2022-11-16T07:28:52.371Z,15.73
2022-11-16T07:31:20.547Z,15.33
2022-11-16T07:33:48.830Z,14.83
2022-11-16T07:36:17.095Z,15.40
2022-11-16T07:38:45.288Z,15.03
2022-11-16T07:41:18.597Z,14.80
2022-11-16T07:43:52.835Z,15.00
2022-11-16T07:46:46.696Z,14.93
2022-11-16T07:49:14.800Z,14.90
2022-11-16T07:51:43.482Z,15.00
2022-11-16T07:54:13.387Z,15.80
2022-11-16T07:56:41.810Z,15.50
2022-11-16T07:59:11.514Z,15.00
2022-11-16T08:01:39.721Z,14.87
2022-11-16T08:04:07.908Z,14.97
2022-11-16T08:06:36.019Z,14.60
2022-11-16T08:09:04.506Z,14.90
2022-11-16T08:11:32.641Z,14.87
2022-11-16T08:14:00.739Z,15.47
2022-11-16T08:16:33.290Z,15.80
2022-11-16T08:19:02.383Z,15.63
2022-11-16T08:21:30.664Z,14.40
2022-11-16T08:23:59.165Z,15.50
2022-11-16T08:26:28.381Z,14.40
2022-11-16T08:28:57.304Z,14.60
2022-11-16T08:31:27.912Z,14.70
2022-11-16T08:33:57.835Z,14.83
2022-11-16T08:36:26.379Z,15.00
2022-11-16T08:38:55.261Z,14.90
2022-11-16T08:41:24.488Z,15.23
2022-11-16T08:43:54.105Z,14.93
2022-11-16T08:46:22.845Z,14.07
2022-11-16T08:48:51.202Z,14.50
2022-11-16T08:51:21.428Z,14.20
2022-11-16T08:53:50.312Z,14.70
2022-11-16T08:56:19.609Z,14.80
2022-11-16T08:58:50.402Z,14.70
2022-11-16T09:01:23.440Z,14.90
2022-11-16T09:03:52.805Z,14.33
2022-11-16T09:06:23.638Z,14.13
2022-11-16T09:08:54.884Z,15.20
2022-11-16T09:11:24.425Z,15.93
2022-11-16T09:13:54.718Z,15.80
2022-11-16T09:16:23.677Z,15.73
2022-11-16T09:18:52.805Z,16.20
2022-11-16T09:21:24.604Z,20.00
2022-11-16T09:23:53.282Z,16.57
2022-11-16T09:26:23.223Z,15.30
2022-11-16T09:28:56.893Z,15.10
2022-11-16T09:31:27.446Z,15.10
2022-11-16T09:33:58.328Z,15.50
2022-11-16T09:36:29.462Z,14.23
2022-11-16T09:41:57.567Z,14.57
2022-11-16T09:44:53.403Z,14.23
2022-11-16T09:47:25.168Z,14.23
2022-11-16T09:50:00.015Z,13.80
2022-11-16T09:52:35.663Z,15.20
2022-11-16T09:55:24.117Z,15.20
2022-11-16T09:57:55.070Z,16.03
2022-11-16T10:00:24.885Z,15.60
2022-11-16T10:03:03.520Z,16.10
2022-11-16T10:05:38.657Z,16.17
2022-11-16T10:08:16.855Z,17.33
2022-11-16T10:10:54.198Z,15.20
2022-11-16T10:13:39.291Z,15.40
2022-11-16T10:16:16.428Z,15.57
2022-11-16T10:18:53.766Z,15.73
2022-11-16T10:21:51.509Z,14.50
2022-11-16T10:24:40.826Z,16.90
2022-11-16T10:27:25.182Z,14.90
2022-11-16T10:30:00.840Z,14.97
2022-11-16T10:32:32.265Z,14.33
2022-11-16T10:35:05.342Z,13.80
2022-11-16T10:37:36.906Z,14.63
2022-11-16T10:40:19.561Z,15.93
2022-11-16T10:42:54.889Z,16.50
2022-11-16T10:45:29.949Z,16.63
2022-11-16T10:48:02.940Z,17.43
2022-11-16T10:50:35.989Z,17.07
2022-11-16T10:53:04.499Z,16.73
2022-11-16T10:55:34.180Z,16.30
2022-11-16T10:58:04.213Z,16.07
2022-11-16T11:00:37.781Z,17.33
2022-11-16T11:03:06.252Z,14.83
2022-11-16T11:05:36.220Z,14.80
2022-11-16T11:08:07.401Z,13.13
2022-11-16T11:10:38.682Z,12.03
2022-11-16T11:13:24.259Z,11.37
2022-11-16T11:15:53.295Z,9.27
2022-11-16T11:18:27.845Z,9.20
2022-11-16T11:21:08.279Z,9.47
2022-11-16T11:23:43.683Z,8.97
2022-11-16T11:26:34.762Z,9.27
2022-11-16T11:29:16.928Z,9.13
2022-11-16T11:31:48.448Z,7.60
2022-11-16T11:34:20.221Z,6.90
2022-11-16T11:36:51.831Z,7.80
2022-11-16T11:39:44.283Z,7.70
2022-11-16T11:42:34.988Z,8.10
2022-11-16T11:45:07.052Z,9.00
2022-11-16T11:48:01.191Z,8.40
2022-11-16T11:50:42.422Z,8.20
2022-11-16T11:53:37.363Z,8.47
2022-11-16T11:56:06.138Z,7.35
2022-11-16T11:58:39.775Z,7.80
2022-11-16T12:01:29.211Z,8.53
2022-11-16T12:04:17.271Z,7.20
2022-11-16T12:06:53.755Z,7.43
2022-11-16T12:09:35.634Z,7.63
2022-11-16T12:12:15.701Z,8.00
2022-11-16T12:15:01.924Z,7.10
2022-11-16T12:17:42.135Z,7.10
2022-11-16T12:20:23.132Z,7.30
2022-11-16T12:23:24.233Z,6.77
2022-11-16T12:26:00.807Z,6.30
2022-11-16T12:28:52.574Z,7.00
2022-11-16T12:31:38.718Z,6.67
2022-11-16T12:34:16.164Z,5.93
2022-11-16T12:36:53.322Z,6.47
2022-11-16T12:39:25.527Z,5.53
2022-11-16T12:42:22.980Z,5.80
2022-11-16T12:45:16.942Z,5.60
2022-11-16T12:48:04.661Z,5.03
2022-11-16T12:50:44.179Z,4.60
2022-11-16T12:53:28.578Z,4.80
2022-11-16T12:56:09.470Z,4.97
2022-11-16T12:58:56.275Z,4.97
2022-11-16T13:01:33.080Z,4.67
2022-11-16T13:04:08.595Z,5.10
2022-11-16T13:06:41.441Z,5.30
2022-11-16T13:09:14.193Z,4.90
2022-11-16T13:11:45.783Z,4.93
2022-11-16T13:14:18.160Z,5.70
2022-11-16T13:16:47.473Z,5.10
2022-11-16T13:19:18.327Z,5.10
2022-11-16T13:21:52.907Z,4.90
2022-11-16T13:24:48.262Z,4.73
2022-11-16T13:27:24.407Z,4.80
2022-11-16T13:30:00.201Z,4.10
2022-11-16T13:32:43.147Z,4.20
2022-11-16T13:35:17.687Z,4.10
2022-11-16T13:37:48.431Z,4.60
2022-11-16T13:40:31.139Z,4.50
2022-11-16T13:43:17.681Z,4.73
2022-11-16T13:45:57.067Z,4.20
2022-11-16T13:48:30.627Z,4.30
2022-11-16T13:51:03.920Z,4.40
2022-11-16T13:56:29.213Z,4.07
2022-11-16T13:58:59.538Z,4.03
2022-11-16T14:01:58.584Z,3.60
2022-11-16T14:04:41.834Z,3.50
2022-11-16T14:07:36.441Z,3.57
2022-11-16T14:10:08.379Z,3.40
2022-11-16T14:12:58.232Z,3.43
2022-11-16T14:15:33.448Z,3.10
2022-11-16T14:18:18.520Z,3.73
2022-11-16T14:21:00.920Z,3.40
2022-11-16T14:23:40.075Z,3.70
2022-11-16T14:26:19.771Z,3.30
2022-11-16T14:29:02.958Z,3.00
2022-11-16T14:31:33.295Z,3.20
2022-11-16T14:34:02.588Z,2.50
2022-11-16T14:36:38.976Z,2.73
2022-11-16T14:39:38.442Z,2.83
2022-11-16T14:42:16.501Z,2.73
2022-11-16T14:44:45.418Z,2.87
2022-11-16T14:47:25.131Z,3.20
2022-11-16T14:49:53.778Z,2.90
2022-11-16T14:52:30.064Z,2.93
2022-11-16T14:55:04.619Z,3.23
2022-11-16T14:57:32.896Z,2.90
2022-11-16T15:00:21.399Z,3.10
2022-11-16T15:02:52.952Z,3.30
2022-11-16T15:05:27.988Z,2.83
2022-11-16T15:07:59.738Z,3.07
2022-11-16T15:10:30.575Z,3.03
2022-11-16T15:12:59.800Z,3.70
2022-11-16T15:15:29.981Z,3.30
2022-11-16T15:18:08.399Z,2.60
2022-11-16T15:20:38.476Z,2.67
2022-11-16T15:23:14.595Z,3.07
2022-11-16T15:25:46.360Z,3.97
2022-11-16T15:28:18.832Z,3.40
2022-11-16T15:30:50.138Z,3.13
2022-11-16T15:33:23.650Z,3.40
2022-11-16T15:35:53.942Z,3.50
2022-11-16T15:38:24.242Z,3.50
2022-11-16T15:40:56.036Z,3.50
2022-11-16T15:43:27.681Z,4.63
2022-11-16T15:45:57.157Z,3.40
2022-11-16T15:48:27.429Z,4.17
2022-11-16T15:51:05.905Z,4.23
2022-11-16T15:53:39.512Z,4.23
2022-11-16T15:56:12.926Z,3.83
2022-11-16T15:58:42.566Z,4.13
2022-11-16T16:01:15.360Z,3.80
2022-11-16T16:03:57.885Z,3.60
2022-11-16T16:06:49.620Z,4.10
2022-11-16T16:09:26.802Z,3.73
2022-11-16T16:11:58.015Z,3.70
2022-11-16T16:14:28.726Z,3.80
2022-11-16T16:16:59.016Z,3.80
2022-11-16T16:19:36.785Z,3.30
2022-11-16T16:22:07.105Z,3.20
2022-11-16T16:24:38.838Z,3.60
2022-11-16T16:27:20.032Z,3.00
2022-11-16T16:29:49.489Z,2.97
2022-11-16T16:32:24.233Z,3.10
2022-11-16T16:34:52.610Z,3.20
2022-11-16T16:37:20.739Z,3.40
2022-11-16T16:39:48.982Z,3.50
2022-11-16T16:42:19.269Z,3.03
2022-11-16T16:44:48.799Z,3.40
2022-11-16T16:47:17.735Z,3.33
2022-11-16T16:49:46.057Z,3.20
2022-11-16T16:52:14.906Z,3.10
2022-11-16T16:54:43.141Z,3.03
2022-11-16T16:57:14.941Z,3.13
2022-11-16T16:59:45.611Z,3.03
2022-11-16T17:02:14.363Z,3.40
2022-11-16T17:04:43.965Z,3.70
2022-11-16T17:07:12.437Z,3.70
2022-11-16T17:09:40.618Z,3.57
2022-11-16T17:12:10.251Z,3.40
2022-11-16T17:14:38.336Z,5.57
2022-11-16T17:17:07.812Z,4.00
2022-11-16T17:19:36.059Z,3.43
2022-11-16T17:22:04.318Z,3.53
2022-11-16T17:24:32.473Z,3.27
2022-11-16T17:27:00.591Z,3.63
2022-11-16T17:29:28.670Z,4.20
2022-11-16T17:31:56.849Z,3.07
2022-11-16T17:34:26.411Z,3.63
2022-11-16T17:36:55.849Z,3.73
2022-11-16T17:39:24.853Z,3.30
2022-11-16T17:41:53.366Z,3.13
2022-11-16T17:44:22.228Z,3.47
2022-11-16T17:46:50.633Z,3.60
2022-11-16T17:49:18.894Z,3.60
2022-11-16T17:51:48.453Z,3.40
2022-11-16T17:54:16.611Z,3.20
2022-11-16T17:56:44.919Z,3.50
2022-11-16T17:59:13.284Z,4.00
2022-11-16T18:01:41.518Z,3.00
2022-11-16T18:04:09.754Z,3.13
2022-11-16T18:06:38.244Z,3.60
2022-11-16T18:09:07.952Z,2.80
2022-11-16T18:11:36.401Z,4.10
2022-11-16T18:14:05.639Z,3.67
2022-11-16T18:16:34.632Z,3.10
2022-11-16T18:19:04.414Z,3.20
2022-11-16T18:21:33.814Z,3.80
2022-11-16T18:24:02.886Z,3.60
2022-11-16T18:26:32.504Z,4.30
2022-11-16T18:29:00.699Z,4.27
2022-11-16T18:31:29.779Z,7.87
2022-11-16T18:33:57.945Z,4.97
2022-11-16T18:36:26.148Z,3.90
2022-11-16T18:38:54.314Z,3.10
2022-11-16T18:41:25.131Z,3.37
2022-11-16T18:43:55.971Z,3.60
2022-11-16T18:46:25.494Z,3.40
2022-11-16T18:48:54.020Z,2.93
2022-11-16T18:51:23.398Z,3.20
2022-11-16T18:53:52.030Z,3.07
2022-11-16T18:56:20.957Z,3.60
2022-11-16T18:58:51.286Z,4.10
2022-11-16T19:01:24.430Z,3.77
2022-11-16T19:03:53.661Z,4.33
2022-11-16T19:06:22.318Z,4.07
2022-11-16T19:08:56.397Z,3.67
2022-11-16T19:11:25.818Z,3.57
2022-11-16T19:13:56.189Z,3.93
2022-11-16T19:16:26.159Z,3.70
2022-11-16T19:18:54.386Z,4.30
2022-11-16T19:21:23.846Z,4.03
2022-11-16T19:23:54.257Z,3.27
2022-11-16T19:26:25.019Z,3.20
2022-11-16T19:28:54.488Z,2.80
2022-11-16T19:31:25.860Z,4.00
2022-11-16T19:33:58.349Z,4.10
2022-11-16T19:36:27.380Z,4.03
2022-11-16T19:38:55.600Z,10.07
2022-11-16T19:41:24.981Z,5.23
2022-11-16T19:43:57.197Z,5.33
2022-11-16T19:46:28.063Z,6.00
2022-11-16T19:48:56.775Z,5.63
2022-11-16T19:51:26.512Z,5.47
2022-11-16T19:53:55.292Z,5.97
2022-11-16T19:56:25.125Z,7.40
2022-11-16T19:58:53.315Z,7.30
2022-11-16T20:01:23.582Z,7.03
2022-11-16T20:03:53.440Z,6.43
2022-11-16T20:06:23.780Z,6.73
2022-11-16T20:08:53.937Z,7.20
2022-11-16T20:11:25.377Z,6.93
2022-11-16T20:13:54.877Z,7.30
2022-11-16T20:16:24.908Z,7.70
2022-11-16T20:18:55.407Z,6.20
2022-11-16T20:21:25.709Z,5.90
2022-11-16T20:23:55.593Z,5.43
2022-11-16T20:26:25.727Z,5.30
2022-11-16T20:28:55.059Z,5.13
2022-11-16T20:31:25.946Z,4.83
2022-11-16T20:33:56.753Z,4.60
2022-11-16T20:36:26.847Z,4.97
2022-11-16T20:38:55.264Z,5.27
2022-11-16T20:41:24.999Z,5.47
2022-11-16T20:43:54.652Z,6.10
2022-11-16T20:46:24.083Z,6.37
2022-11-16T20:48:52.253Z,5.90
2022-11-16T20:51:22.187Z,6.10
2022-11-16T20:53:52.058Z,7.20
2022-11-16T20:56:20.958Z,6.40
2022-11-16T20:58:49.446Z,4.67
2022-11-16T21:01:20.063Z,5.33
2022-11-16T21:03:48.540Z,4.80
2022-11-16T21:06:17.080Z,5.30
2022-11-16T21:08:46.710Z,4.33
2022-11-16T21:11:16.720Z,4.50
2022-11-16T21:14:04.115Z,4.03
2022-11-16T21:16:33.172Z,4.40
2022-11-16T21:19:01.713Z,4.67
2022-11-16T21:21:30.380Z,3.90
2022-11-16T21:24:00.002Z,4.17
2022-11-16T21:26:31.259Z,4.47
2022-11-16T21:29:00.435Z,4.70
2022-11-16T21:31:30.597Z,5.20
2022-11-16T21:34:00.532Z,5.30
2022-11-16T21:36:30.191Z,5.07
2022-11-16T21:39:00.199Z,5.90
2022-11-16T21:41:28.572Z,6.00
2022-11-16T21:43:56.858Z,5.43
2022-11-16T21:46:26.565Z,5.47
2022-11-16T21:48:56.594Z,6.40
2022-11-16T21:51:26.892Z,6.07
2022-11-16T21:53:55.657Z,6.07
2022-11-16T21:56:26.547Z,7.37
2022-11-16T21:58:55.265Z,7.23
2022-11-16T22:01:24.524Z,7.47
2022-11-16T22:04:06.762Z,9.00
2022-11-16T22:06:52.339Z,8.90
2022-11-16T22:09:20.532Z,6.40
2022-11-16T22:11:50.006Z,7.30
2022-11-16T22:14:18.097Z,7.40
2022-11-16T22:16:46.234Z,8.70
2022-11-16T22:19:14.359Z,8.17
2022-11-16T22:21:42.667Z,8.33
2022-11-16T22:24:10.798Z,8.50
2022-11-16T22:26:39.955Z,7.40
2022-11-16T22:29:09.403Z,7.17
2022-11-16T22:31:37.516Z,6.50
2022-11-16T22:34:05.867Z,6.30
2022-11-16T22:36:34.004Z,6.23
2022-11-16T22:39:02.529Z,6.93
2022-11-16T22:41:30.789Z,6.30
2022-11-16T22:43:58.870Z,6.30
2022-11-16T22:46:28.397Z,6.30
2022-11-16T22:48:56.781Z,6.03
2022-11-16T22:51:26.247Z,6.10
2022-11-16T22:53:54.939Z,6.03
2022-11-16T22:56:23.578Z,5.80
2022-11-16T22:58:51.848Z,5.57
2022-11-16T23:01:20.254Z,5.50
2022-11-16T23:03:50.070Z,5.50
2022-11-16T23:06:18.771Z,5.43
2022-11-16T23:08:47.055Z,6.40
2022-11-16T23:11:34.649Z,6.97
2022-11-16T23:14:20.600Z,7.33
2022-11-16T23:16:49.089Z,7.70
2022-11-16T23:19:37.799Z,8.37
2022-11-16T23:22:24.079Z,7.70
2022-11-16T23:25:15.408Z,8.17
2022-11-16T23:27:50.655Z,7.50
2022-11-16T23:30:18.871Z,7.83
2022-11-16T23:32:47.343Z,8.17
2022-11-16T23:35:17.182Z,8.57
2022-11-16T23:37:52.955Z,8.80
2022-11-16T23:40:22.243Z,8.87
2022-11-16T23:43:07.803Z,8.40
2022-11-16T23:45:35.894Z,7.40
2022-11-16T23:48:04.008Z,7.50
2022-11-16T23:50:33.634Z,6.50
2022-11-16T23:53:01.803Z,5.90
2022-11-16T23:55:30.180Z,6.00
2022-11-16T23:57:58.265Z,5.50
